Flight Track Log - Related Links

Times and Time Zones

All times are in EST time to prevent confusion due to time zone crossing. See the AAL1015 flight status page for this flight to view local times or setup timezone preferences in your user account.

Time Position Orientation Groundspeed Altitude Reporting Facility
EST Latitude Longitude Course Direction KTS MPH feet Rate Location/Type
Tue 08:08:00 PM 32.7406 -117.2269 90° East 163 188 1,500  Level Los Angeles Center
Tue 08:09:02 PM 32.7567 -117.2947 286° West 207 238 3,600 2,371 Climbing Los Angeles Center
Tue 08:10:04 PM 32.7017 -117.3261 206° Southwest 250 288 6,400 3,072 Climbing Los Angeles Center
Tue 08:11:07 PM 32.6481 -117.2417 127° Southeast 270 311 10,000 2,592 Climbing Los Angeles Center
Tue 08:12:09 PM 32.6339 -117.1361 99° East 312 359 11,800 2,371 Climbing Los Angeles Center
Tue 08:13:00 PM 32.6333 -116.6666 90° East  Level FlightAware Approximate
Tue 08:13:11 PM 32.6153 -117.0136 100° East 364 419 14,900  Level Los Angeles Center
Tue 08:14:13 PM 32.6194 -116.8822 88° East 391 450 17,400 2,468 Climbing Los Angeles Center
Tue 08:15:15 PM 32.6331 -116.7422 83° East 420 483 20,000 2,613 Climbing Los Angeles Center
Tue 08:16:17 PM 32.6511 -116.5611 83° East 464 534 22,800 2,081 Climbing Los Angeles Center
Tue 08:17:19 PM 32.6642 -116.4081 84° East 472 543 24,300 1,694 Climbing Los Angeles Center
Tue 08:18:21 PM 32.6800 -116.2500 83° East 490 564 26,300 1,306 Climbing Los Angeles Center
Tue 08:19:23 PM 32.6961 -116.0856 83° East 505 581 27,000 1,161 Climbing Los Angeles Center
Tue 08:20:25 PM 32.7142 -115.8861 84° East 510 587 28,700 1,887 Climbing Los Angeles Center
Tue 08:21:27 PM 32.7286 -115.7167 84° East 517 595 30,900 2,208 Climbing Los Angeles Center
Tue 08:22:30 PM 32.7439 -115.5486 84° East 515 593 33,300 2,016 Climbing Los Angeles Center
Tue 08:23:32 PM 32.7586 -115.3839 84° East 506 582 35,100 1,742 Climbing Los Angeles Center
Tue 08:24:34 PM 32.7722 -115.2192 84° East 503 579 36,900 526 Climbing Los Angeles Center
Tue 08:30:57 PM 32.8521 -114.1946 85° East 509 586 39,000 266 Climbing FlightAware ADS-B
Tue 08:32:28 PM 32.8754 -113.8784 85° East 502 578 39,000  Level FlightAware ADS-B
Tue 08:33:23 PM 32.8862 -113.7294 85° East 499 574 39,000  Level FlightAware ADS-B
Tue 08:34:05 PM 32.8944 -113.6152 85° East 499 574 39,000  Level FlightAware ADS-B
Tue 08:34:37 PM 32.9004 -113.5281 85° East 497 572 39,000  Level FlightAware ADS-B
Tue 08:35:16 PM 32.9075 -113.4229 86° East 496 571 39,000  Level FlightAware ADS-B
Tue 08:35:53 PM 32.9143 -113.3213 85° East 495 570 39,000  Level FlightAware ADS-B
Tue 08:36:33 PM 32.9213 -113.2206 85° East 497 572 39,000  Level FlightAware ADS-B
Tue 08:37:21 PM 32.9303 -113.0832 86° East 498 573 39,000  Level FlightAware ADS-B
Tue 08:37:55 PM 32.9359 -112.9930 86° East 499 574 39,000  Level FlightAware ADS-B
Tue 08:39:33 PM 32.9529 -112.7207 88° East 504 580 39,000  Level FlightAware ADS-B
Tue 08:39:45 PM 32.9528 -112.6934 91° East 507 583 39,000  Level FlightAware ADS-B (VRMM / MLE)
Tue 08:40:32 PM 32.9386 -112.5645 101° East 519 597 39,000  Level FlightAware ADS-B
Tue 08:41:02 PM 32.9265 -112.4892 101° East 519 597 39,000  Level FlightAware ADS-B (VRMM / MLE)
Tue 08:41:45 PM 32.9043 -112.3516 101° East 520 598 39,000  Level FlightAware ADS-B
Tue 08:42:21 PM 32.8878 -112.2498 101° East 520 598 39,000  Level FlightAware ADS-B (VRMM / MLE)
Tue 08:43:09 PM 32.8660 -112.1161 101° East 523 602 39,000  Level FlightAware ADS-B
Tue 08:43:41 PM 32.8512 -112.0256 101° East 523 602 39,000  Level FlightAware ADS-B (VRMM / MLE)
Tue 08:44:13 PM 32.8367 -111.9367 101° East 523 602 39,000  Level FlightAware ADS-B
Tue 08:44:52 PM 32.8185 -111.8257 101° East 522 601 39,000  Level FlightAware ADS-B (VRMM / MLE)
Tue 08:45:23 PM 32.8046 -111.7427 101° East 521 600 39,000  Level FlightAware ADS-B
Tue 08:45:53 PM 32.7897 -111.6547 101° East 520 598 39,000  Level FlightAware ADS-B (VRMM / MLE)
Tue 08:46:02 PM 32.7853 -111.6286 101° East 520 598 39,000  Level FlightAware ADS-B (VRMM / MLE)
Tue 08:46:33 PM 32.7709 -111.5443 101° East 520 598 39,000  Level FlightAware ADS-B (VRMM / MLE)
Tue 08:47:09 PM 32.7534 -111.4418 101° East 521 600 39,000  Level FlightAware ADS-B
Tue 08:47:41 PM 32.7390 -111.3565 101° East 521 600 39,000  Level FlightAware ADS-B
Tue 08:48:13 PM 32.7232 -111.2639 101° East 520 598 39,000  Level FlightAware ADS-B (VRMM / MLE)
Tue 08:48:53 PM 32.7040 -111.1514 102° East 522 601 39,000  Level FlightAware ADS-B
Tue 08:49:25 PM 32.6888 -111.0637 102° East 523 602 39,000  Level FlightAware ADS-B
Tue 08:49:48 PM 32.6772 -110.9961 101° East 522 601 39,000  Level FlightAware ADS-B (VRMM / MLE)
Tue 08:50:19 PM 32.6625 -110.9108 101° East 522 601 39,000  Level FlightAware ADS-B (VRMM / MLE)
Tue 08:50:49 PM 32.6476 -110.8249 101° East 521 600 39,000  Level FlightAware ADS-B (VRMM / MLE)
Tue 08:51:21 PM 32.6325 -110.7387 102° East 523 602 39,000  Level FlightAware ADS-B
Tue 08:51:43 PM 32.6210 -110.6743 101° East 521 600 39,000  Level FlightAware ADS-B (VRMM / MLE)
Tue 08:52:21 PM 32.6021 -110.5690 102° East 521 600 39,000  Level FlightAware ADS-B
Tue 08:52:51 PM 32.5869 -110.4845 101° East 520 598 39,000  Level FlightAware ADS-B (VRMM / MLE)
Tue 08:53:21 PM 32.5746 -110.4147 102° East 522 601 39,000  Level FlightAware ADS-B
Tue 08:53:40 PM 32.5628 -110.3476 102° East 522 601 39,000  Level FlightAware ADS-B
Tue 08:54:38 PM 32.5341 -110.1879 102° East 524 603 39,000  Level FlightAware ADS-B
Tue 08:55:09 PM 32.5179 -110.0985 102° East 525 604 39,000  Level FlightAware ADS-B (VRMM / MLE)
Tue 08:55:42 PM 32.5086 -110.0475 102° East 526 605 39,000 706 Level FlightAware ADS-B
Tue 08:56:17 PM 32.4916 -109.9344 99° East 519 597 39,800 1,217 Climbing FlightAware ADS-B
Tue 08:56:51 PM 32.4754 -109.8127 99° East 518 596 40,400 892 Climbing FlightAware ADS-B
Tue 08:57:31 PM 32.4619 -109.7118 99° East 522 601 40,900 316 Climbing FlightAware ADS-B
Tue 08:58:45 PM 32.4321 -109.4921 99° East 528 608 41,000 48 Climbing FlightAware ADS-B
Tue 08:59:37 PM 32.4138 -109.3584 99° East 529 609 41,000  Level FlightAware ADS-B
Tue 09:00:38 PM 32.3886 -109.1739 99° East 530 610 41,000  Level FlightAware ADS-B
Tue 09:01:12 PM 32.3742 -109.0710 99° East 532 612 41,000  Level FlightAware ADS-B
Tue 09:01:55 PM 32.3569 -108.9482 99° East 532 612 41,000  Level FlightAware ADS-B
Tue 09:02:55 PM 32.3350 -108.8053 99° East 531 611 41,000  Level Albuquerque Center
Tue 09:03:56 PM 32.3117 -108.6367 99° East 527 606 41,000  Level Albuquerque Center
Tue 09:04:57 PM 32.2831 -108.4406 100° East 527 606 41,000 -49 Level Albuquerque Center
Tue 09:05:59 PM 32.2589 -108.2708 100° East 526 605 40,900  Descending Albuquerque Center
Tue 09:07:00 PM 32.2344 -108.1028 100° East 524 603 41,000 49 Climbing Albuquerque Center
Tue 09:08:01 PM 32.2097 -107.9361 100° East 521 600 41,000  Level Albuquerque Center
Tue 09:09:03 PM 32.1847 -107.7703 100° East 518 596 41,000 -49 Level Albuquerque Center
Tue 09:10:04 PM 32.1600 -107.6033 100° East 520 598 40,900 -49 Descending Albuquerque Center
Tue 09:11:05 PM 32.1353 -107.4389 100° East 517 595 40,900 49 Level Albuquerque Center
Tue 09:12:06 PM 32.1056 -107.2417 100° East 517 595 41,000 49 Climbing Albuquerque Center
Tue 09:13:08 PM 32.0797 -107.0756 100° East 519 597 41,000  Level Albuquerque Center
Tue 09:14:09 PM 32.0561 -106.9078 99° East 524 603 41,000 -49 Level Albuquerque Center
Tue 09:15:10 PM 32.0617 -106.7414 88° East 513 590 40,900 -49 Descending Albuquerque Center
Tue 09:16:12 PM 32.0711 -106.5750 86° East 512 589 40,900  Level Albuquerque Center
Tue 09:17:13 PM 32.0797 -106.4072 86° East 515 593 40,900 14 Level Albuquerque Center
Tue 09:23:22 PM 32.1176 -105.5770 87° East 512 589 41,000 13 Climbing FlightAware ADS-B
Tue 09:24:49 PM 32.1366 -105.1208 87° East 514 592 41,000  Level FlightAware ADS-B
Tue 09:25:24 PM 32.1405 -105.0194 87° East 512 589 41,000  Level FlightAware ADS-B
Tue 09:25:54 PM 32.1439 -104.9301 87° East 512 589 41,000  Level FlightAware ADS-B
Tue 09:26:24 PM 32.1471 -104.8467 87° East 511 588 41,000  Level FlightAware ADS-B
Tue 09:26:54 PM 32.1503 -104.7625 88° East 513 590 41,000  Level FlightAware ADS-B
Tue 09:27:26 PM 32.1534 -104.6768 88° East 512 589 41,000  Level FlightAware ADS-B
Tue 09:27:57 PM 32.1564 -104.5904 88° East 512 589 41,000  Level FlightAware ADS-B
Tue 09:28:27 PM 32.1593 -104.5082 88° East 513 590 41,000  Level FlightAware ADS-B
Tue 09:28:57 PM 32.1622 -104.4258 88° East 512 589 41,000  Level FlightAware ADS-B
Tue 09:29:31 PM 32.1656 -104.3275 88° East 513 590 41,000  Level FlightAware ADS-B
Tue 09:30:02 PM 32.1683 -104.2422 88° East 514 592 41,000  Level FlightAware ADS-B
Tue 09:30:33 PM 32.1712 -104.1554 88° East 514 592 41,000  Level FlightAware ADS-B
Tue 09:31:08 PM 32.1743 -104.0560 88° East 515 593 41,000  Level FlightAware ADS-B
Tue 09:31:38 PM 32.1770 -103.9710 88° East 515 593 41,000  Level FlightAware ADS-B
Tue 09:32:13 PM 32.1798 -103.8743 88° East 512 589 41,000  Level FlightAware ADS-B
Tue 09:32:48 PM 32.1826 -103.7775 88° East 508 585 41,000  Level FlightAware ADS-B
Tue 09:33:18 PM 32.1848 -103.6965 88° East 506 582 41,000  Level FlightAware ADS-B
Tue 09:33:53 PM 32.1876 -103.5971 88° East 505 581 41,000  Level FlightAware ADS-B
Tue 09:34:23 PM 32.1899 -103.5162 88° East 503 579 41,000  Level FlightAware ADS-B
Tue 09:34:57 PM 32.1925 -103.4222 88° East 501 577 41,000  Level FlightAware ADS-B
Tue 09:35:29 PM 32.1946 -103.3351 88° East 498 573 41,000  Level FlightAware ADS-B
Tue 09:35:59 PM 32.1964 -103.2633 88° East 497 572 41,000  Level FlightAware ADS-B
Tue 09:36:29 PM 32.1988 -103.1733 88° East 496 571 41,000  Level FlightAware ADS-B
Tue 09:36:59 PM 32.2007 -103.0920 88° East 493 567 41,000  Level FlightAware ADS-B
Tue 09:37:29 PM 32.2027 -103.0117 88° East 493 567 41,000  Level FlightAware ADS-B
Tue 09:38:03 PM 32.2048 -102.9187 89° East 492 566 41,000  Level FlightAware ADS-B
Tue 09:38:35 PM 32.2066 -102.8357 89° East 492 566 41,000  Level FlightAware ADS-B
Tue 09:39:05 PM 32.2082 -102.7572 89° East 492 566 41,000  Level FlightAware ADS-B
Tue 09:39:36 PM 32.2100 -102.6718 89° East 491 565 41,000  Level FlightAware ADS-B
Tue 09:40:06 PM 32.2114 -102.5923 89° East 491 565 41,000  Level FlightAware ADS-B
Tue 09:40:36 PM 32.2130 -102.5119 89° East 491 565 41,000  Level FlightAware ADS-B
Tue 09:41:06 PM 32.2145 -102.4314 89° East 492 566 41,000  Level FlightAware ADS-B
Tue 09:41:36 PM 32.2159 -102.3521 89° East 491 565 41,000  Level FlightAware ADS-B
Tue 09:42:07 PM 32.2174 -102.2677 89° East 491 565 41,000  Level FlightAware ADS-B
Tue 09:42:37 PM 32.2187 -102.1891 89° East 491 565 41,000  Level FlightAware ADS-B
Tue 09:43:08 PM 32.2201 -102.1049 89° East 490 564 41,000  Level FlightAware ADS-B
Tue 09:43:38 PM 32.2214 -102.0247 89° East 489 563 41,000  Level FlightAware ADS-B
Tue 09:44:09 PM 32.2225 -101.9430 89° East 488 562 41,000  Level FlightAware ADS-B
Tue 09:44:39 PM 32.2236 -101.8624 89° East 488 562 41,000  Level FlightAware ADS-B
Tue 09:45:09 PM 32.2248 -101.7825 89° East 487 560 41,000  Level FlightAware ADS-B
Tue 09:45:44 PM 32.2261 -101.6924 89° East 486 559 41,000  Level FlightAware ADS-B
Tue 09:46:14 PM 32.2272 -101.6120 89° East 485 558 41,000  Level FlightAware ADS-B
Tue 09:46:44 PM 32.2282 -101.5332 89° East 484 557 41,000  Level FlightAware ADS-B
Tue 09:47:14 PM 32.2292 -101.4537 89° East 484 557 41,000  Level FlightAware ADS-B
Tue 09:47:48 PM 32.2300 -101.3609 89° East 484 557 41,000  Level FlightAware ADS-B
Tue 09:48:19 PM 32.2307 -101.2812 90° East 485 558 41,000  Level FlightAware ADS-B
Tue 09:48:53 PM 32.2312 -101.1896 90° East 486 559 41,000  Level FlightAware ADS-B
Tue 09:49:24 PM 32.2320 -101.1073 89° East 488 562 41,000  Level FlightAware ADS-B
Tue 09:50:04 PM 32.2326 -101.0409 89° East 489 563 41,000  Level FlightAware ADS-B
Tue 09:50:39 PM 32.2335 -100.9115 90° East 491 565 41,000  Level FlightAware ADS-B
Tue 09:51:14 PM 32.2339 -100.8345 90° East 491 565 41,000  Level FlightAware ADS-B
Tue 09:51:45 PM 32.2344 -100.7387 90° East 489 563 41,000  Level FlightAware ADS-B
Tue 09:52:21 PM 32.2348 -100.6363 90° East 488 562 41,000  Level FlightAware ADS-B
Tue 09:52:51 PM 32.2351 -100.5569 90° East 488 562 41,000  Level FlightAware ADS-B
Tue 09:53:21 PM 32.2354 -100.4802 90° East 488 562 41,000  Level FlightAware ADS-B
Tue 09:53:51 PM 32.2356 -100.4111 90° East 488 562 41,000  Level FlightAware ADS-B
Tue 09:54:21 PM 32.2357 -100.3560 90° East 488 562 41,000  Level FlightAware ADS-B
Tue 09:54:56 PM 32.2359 -100.2266 90° East 489 563 41,000  Level FlightAware ADS-B
Tue 09:55:31 PM 32.2362 -100.1315 90° East 489 563 41,000  Level FlightAware ADS-B
Tue 09:56:01 PM 32.2363 -100.0509 90° East 490 564 41,000  Level FlightAware ADS-B
Tue 09:56:35 PM 32.2361 -99.9624 90° East 489 563 41,000  Level FlightAware ADS-B
Tue 09:57:16 PM 32.2357 -99.8511 90° East 488 562 41,000  Level FlightAware ADS-B
Tue 09:57:50 PM 32.2348 -99.7594 92° East 485 558 41,000  Level FlightAware ADS-B
Tue 09:58:24 PM 32.2315 -99.6703 93° East 484 557 41,000  Level FlightAware ADS-B
Tue 09:58:55 PM 32.2296 -99.5947 88° East 480 552 41,000  Level FlightAware ADS-B
Tue 09:59:31 PM 32.2352 -99.4991 86° East 479 551 41,000 -167 Level FlightAware ADS-B
Tue 10:00:07 PM 32.2415 -99.4036 86° East 480 552 40,800 -692 Descending FlightAware ADS-B
Tue 10:01:15 PM 32.2494 -99.2458 86° East 480 552 39,800 -884 Descending Fort Worth Center
Tue 10:02:16 PM 32.2586 -99.0939 86° East 471 542 38,900 -1,366 Descending Fort Worth Center
Tue 10:03:18 PM 32.2689 -98.9381 85° East 473 544 37,000 -2,608 Descending Fort Worth Center
Tue 10:08:54 PM 32.3183 -98.0864 86° East 403 464 21,600 -2,723 Descending FlightAware ADS-B
Tue 10:09:26 PM 32.3222 -98.0156 86° East 402 463 20,300 -2,000 Descending Fort Worth Center
Tue 10:10:27 PM 32.3292 -97.8914 86° East 384 442 18,500 -1,389 Descending Fort Worth Center
Tue 10:16:12 PM 32.6060 -97.3429 45° Northeast 345 397 10,900 -1,210 Descending FlightAware ADS-B
Tue 10:16:44 PM 32.6427 -97.2987 45° Northeast 344 396 10,900  Level FlightAware ADS-B
Tue 10:17:25 PM 32.6905 -97.2410 45° Northeast 331 381 10,900  Level FlightAware ADS-B
Tue 10:18:02 PM 32.7203 -97.2049 46° Northeast 289 333 10,900  Level FlightAware ADS-B
Tue 10:18:35 PM 32.7562 -97.1700 19° North 257 296 10,900 -293 Level FlightAware ADS-B
Tue 10:18:43 PM 32.7628 -97.1689 North 252 290 10,700 -1,071 Descending FlightAware ADS-B
Tue 10:19:03 PM 32.7858 -97.1685 360° North 250 288 10,400 -1,091 Descending FlightAware ADS-B
Tue 10:19:16 PM 32.7996 -97.1682 North 250 288 10,100 -1,241 Descending FlightAware ADS-B
Tue 10:19:32 PM 32.8204 -97.1676 360° North 248 285 9,800 -1,050 Descending FlightAware ADS-B
Tue 10:19:56 PM 32.8496 -97.1673 360° North 243 280 9,400 -1,024 Descending FlightAware ADS-B
Tue 10:20:13 PM 32.8687 -97.1671 360° North 241 277 9,100 -1,135 Descending FlightAware ADS-B
Tue 10:20:33 PM 32.8893 -97.1668 360° North 241 277 8,700 -1,034 Descending FlightAware ADS-B
Tue 10:20:42 PM 32.8977 -97.1666 North 240 276 8,600 -1,034 Descending FlightAware ADS-B
Tue 10:21:02 PM 32.9224 -97.1661 North 238 274 8,200 -1,050 Descending FlightAware ADS-B
Tue 10:21:22 PM 32.9442 -97.1655 North 230 265 7,900 -1,024 Descending FlightAware ADS-B
Tue 10:21:43 PM 32.9639 -97.1649 North 227 261 7,500 -1,273 Descending FlightAware ADS-B
Tue 10:21:55 PM 32.9756 -97.1647 360° North 223 257 7,200 -2,364 Descending FlightAware ADS-B
Tue 10:22:16 PM 32.9987 -97.1645 360° North 222 255 6,200 -2,927 Descending FlightAware ADS-B
Tue 10:22:36 PM 33.0193 -97.1640 North 234 269 5,200 -2,927 Descending FlightAware ADS-B
Tue 10:22:57 PM 33.0438 -97.1631 North 233 268 4,200 -2,757 Descending FlightAware ADS-B
Tue 10:23:13 PM 33.0576 -97.1581 27° Northeast 230 265 3,500 -2,357 Descending FlightAware ADS-B
Tue 10:23:25 PM 33.0667 -97.1483 50° Northeast 225 259 3,100 -1,800 Descending FlightAware ADS-B
Tue 10:23:33 PM 33.0708 -97.1369 73° East 214 246 2,900 -600 Descending FlightAware ADS-B
Tue 10:23:45 PM 33.0714 -97.1244 89° East 205 236 2,900  Level FlightAware ADS-B
Tue 10:24:06 PM 33.0707 -97.1036 98° East 204 235 2,900  Level FlightAware ADS-B
Tue 10:24:14 PM 33.0661 -97.0927 121° Southeast 199 229 2,900  Level FlightAware ADS-B
Tue 10:24:22 PM 33.0608 -97.0871 135° Southeast 194 223 2,900  Level FlightAware ADS-B
Tue 10:24:43 PM 33.0490 -97.0764 142° Southeast 176 203 2,900  Level FlightAware ADS-B
Tue 10:25:03 PM 33.0342 -97.0636 146° Southeast 161 185 2,900 -600 Level FlightAware ADS-B
Tue 10:25:23 PM 33.0223 -97.0574 160° South 141 162 2,500 -732 Descending FlightAware ADS-B
Tue 10:25:44 PM 33.0097 -97.0545 172° South 131 151 2,400 -486 Descending FlightAware ADS-B
Tue 10:26:00 PM 33.0019 -97.0542 179° South 129 148 2,200 -696 Descending FlightAware ADS-B
Tue 10:26:53 PM 32.9708 -97.0542 360° North 123 142 1,600 -689 Descending FlightAware ADS-B
Tue 10:27:01 PM 32.9677 -97.0542 180° South 122 140 1,500 -600 Descending FlightAware ADS-B
Tue 10:27:43 PM 32.9333 -97.0500 180° South 123 142 1,100 -571 Descending Dallas / Fort Worth TRACON

Login

Don't have an account? Register now (free) for customized features, flight alerts, and more!